Time;durP1;ratioP1;P1;durP2;ratioP2;P2;SDS_P1;SDS_P2;PMS_P1;PMS_P2;Temp;Humidity;BMP_temperature;BMP_pressure;BME280_temperature;BME280_humidity;BME280_pressure;Samples;Min_cycle;Max_cycle;Signal;HPM_P1;HPM_P2
2022/06/05 00:00:59;;;;;;;21.08;9.05;;;22.60;99.90;;;;;;5050051;28;20406;-77
2022/06/05 00:03:43;;;;;;;16.15;9.30;;;22.60;99.90;;;;;;5027628;28;20037;-77
2022/06/05 00:06:37;;;;;;;12.80;9.95;;;22.60;99.90;;;;;;5050365;28;20033;-77
2022/06/05 00:09:33;;;;;;;18.65;9.63;;;22.50;99.90;;;;;;5075159;28;20018;-78
2022/06/05 00:12:48;;;;;;;13.80;9.27;;;22.50;99.90;;;;;;5050143;28;20021;-77
2022/06/05 00:15:14;;;;;;;18.70;10.15;;;22.50;99.90;;;;;;5042307;28;20124;-76
2022/06/05 00:17:40;;;;;;;19.77;9.68;;;22.50;99.90;;;;;;5052491;28;20120;-77
2022/06/05 00:20:07;;;;;;;17.80;8.60;;;22.40;99.90;;;;;;5050931;28;20025;-77
2022/06/05 00:22:33;;;;;;;12.23;9.05;;;22.40;99.90;;;;;;5048926;28;20017;-76
2022/06/05 00:24:59;;;;;;;16.02;9.38;;;22.40;99.90;;;;;;5051120;28;20178;-77
2022/06/05 00:27:41;;;;;;;12.23;8.48;;;22.40;99.90;;;;;;5052101;28;20053;-77
2022/06/05 00:30:17;;;;;;;16.77;9.63;;;22.40;99.90;;;;;;5051757;28;20025;-76
2022/06/05 00:32:48;;;;;;;13.30;8.95;;;22.40;99.90;;;;;;5052692;28;20407;-77
2022/06/05 00:35:17;;;;;;;17.40;9.95;;;22.40;99.90;;;;;;5049727;28;20447;-76
2022/06/05 00:38:02;;;;;;;16.52;9.70;;;22.40;99.90;;;;;;5051122;28;20017;-77
2022/06/05 00:40:34;;;;;;;20.15;9.52;;;22.40;99.90;;;;;;5051094;28;20028;-77
2022/06/05 00:43:02;;;;;;;21.42;10.27;;;22.40;99.90;;;;;;5052282;28;20095;-76
2022/06/05 00:45:30;;;;;;;18.65;10.25;;;22.40;99.90;;;;;;5052109;28;20472;-78
2022/06/05 00:47:57;;;;;;;15.63;9.25;;;22.30;99.90;;;;;;5055968;28;20100;-77
2022/06/05 00:50:29;;;;;;;15.70;9.45;;;22.30;99.90;;;;;;5055976;28;20009;-77
2022/06/05 00:52:59;;;;;;;19.75;8.77;;;22.30;99.90;;;;;;5053678;28;20096;-76
2022/06/05 00:55:27;;;;;;;17.65;9.68;;;22.20;99.90;;;;;;5054546;28;20417;-76
2022/06/05 00:57:54;;;;;;;16.75;10.30;;;22.20;99.90;;;;;;5053710;28;20028;-76
2022/06/05 01:00:29;;;;;;;11.73;10.00;;;22.20;99.90;;;;;;5056033;28;20021;-77
2022/06/05 01:02:57;;;;;;;17.63;10.60;;;22.20;99.90;;;;;;5053512;28;20020;-77
2022/06/05 01:05:26;;;;;;;20.40;10.20;;;22.20;99.90;;;;;;5055952;28;20016;-76
2022/06/05 01:07:52;;;;;;;16.92;9.77;;;22.10;99.90;;;;;;5054591;28;20166;-78
2022/06/05 01:10:21;;;;;;;18.98;9.98;;;22.20;99.90;;;;;;5055574;28;20017;-76
2022/06/05 01:13:26;;;;;;;18.20;10.15;;;22.20;99.90;;;;;;5055926;28;20021;-77
2022/06/05 01:16:18;;;;;;;13.77;9.68;;;22.20;99.90;;;;;;5053245;28;20025;-76
2022/06/05 01:19:12;;;;;;;20.77;9.35;;;22.20;99.90;;;;;;5054742;28;20071;-76
2022/06/05 01:22:07;;;;;;;13.63;10.20;;;22.10;99.90;;;;;;5053997;28;20028;-76
2022/06/05 01:24:43;;;;;;;19.20;9.15;;;22.10;99.90;;;;;;5052719;28;20024;-75
2022/06/05 01:27:17;;;;;;;16.50;9.38;;;22.10;99.90;;;;;;5055985;28;20071;-76
2022/06/05 01:29:49;;;;;;;14.20;9.63;;;22.00;99.90;;;;;;5056911;28;20503;-77
2022/06/05 01:32:31;;;;;;;17.35;9.90;;;22.00;99.90;;;;;;5055570;28;20074;-75
2022/06/05 01:35:17;;;;;;;17.85;10.77;;;21.90;99.90;;;;;;5055802;28;20060;-75
2022/06/05 01:37:58;;;;;;;19.08;10.90;;;21.90;99.90;;;;;;5055498;28;20025;-77
2022/06/05 01:40:52;;;;;;;19.85;11.27;;;21.90;99.90;;;;;;5055482;28;20031;-78
2022/06/05 01:43:30;;;;;;;13.45;10.50;;;21.80;99.90;;;;;;5055302;28;20133;-77
2022/06/05 01:46:04;;;;;;;19.15;10.18;;;21.80;99.90;;;;;;5056685;28;20025;-77
2022/06/05 01:48:37;;;;;;;22.80;10.32;;;21.70;99.90;;;;;;5056636;28;20017;-75
2022/06/05 01:51:09;;;;;;;22.40;10.93;;;21.60;99.90;;;;;;5056000;28;20455;-76
2022/06/05 01:53:41;;;;;;;25.27;11.02;;;21.50;99.90;;;;;;5056191;28;20348;-77
2022/06/05 01:56:37;;;;;;;19.48;11.43;;;21.50;99.90;;;;;;5056208;28;20021;-76
2022/06/05 01:59:35;;;;;;;17.50;10.80;;;21.50;99.90;;;;;;5055089;28;20027;-78
2022/06/05 02:02:04;;;;;;;17.23;10.88;;;21.40;99.90;;;;;;5056510;28;20105;-76
2022/06/05 02:04:53;;;;;;;19.45;10.38;;;21.40;99.90;;;;;;5054602;28;20116;-77
2022/06/05 02:07:30;;;;;;;22.38;10.85;;;21.40;99.90;;;;;;5056363;28;20025;-76
2022/06/05 02:10:01;;;;;;;19.40;11.05;;;21.40;99.90;;;;;;5056177;28;20021;-77
2022/06/05 02:12:27;;;;;;;13.98;10.60;;;21.30;99.90;;;;;;5056117;28;20024;-77
2022/06/05 02:14:55;;;;;;;18.40;10.30;;;21.30;99.90;;;;;;5055783;28;20107;-78
2022/06/05 02:17:20;;;;;;;16.98;10.02;;;21.30;99.90;;;;;;5054512;28;20017;-78
2022/06/05 02:19:46;;;;;;;24.42;10.88;;;21.30;99.90;;;;;;5055797;28;20074;-76
2022/06/05 02:22:25;;;;;;;18.90;10.45;;;21.20;99.90;;;;;;5055949;28;20363;-78
2022/06/05 02:24:53;;;;;;;21.95;11.30;;;21.20;99.90;;;;;;5055728;28;20017;-78
2022/06/05 02:27:24;;;;;;;14.43;11.10;;;21.20;99.90;;;;;;5055503;28;20021;-78
2022/06/05 02:29:51;;;;;;;18.73;10.50;;;21.10;99.90;;;;;;5055558;28;20029;-76
2022/06/05 02:32:24;;;;;;;21.70;10.40;;;21.00;99.90;;;;;;5054390;28;20029;-76
2022/06/05 02:35:12;;;;;;;21.13;10.27;;;21.00;99.90;;;;;;5056100;28;20029;-78
2022/06/05 02:37:50;;;;;;;25.85;9.93;;;21.00;99.90;;;;;;5055421;28;20057;-75
2022/06/05 02:40:52;;;;;;;17.73;9.70;;;21.00;99.90;;;;;;5055253;28;20471;-76
2022/06/05 02:47:11;;;;;;;17.45;9.15;;;21.00;99.90;;;;;;5055236;28;20024;-75
2022/06/05 02:49:55;;;;;;;14.52;10.07;;;20.90;99.90;;;;;;5055190;28;20060;-77
2022/06/05 02:52:23;;;;;;;19.52;9.98;;;20.90;99.90;;;;;;5055409;28;20360;-77
2022/06/05 02:54:59;;;;;;;14.05;9.15;;;20.90;99.90;;;;;;5054965;28;20090;-76
2022/06/05 02:57:25;;;;;;;17.33;10.43;;;20.80;99.90;;;;;;5054031;28;20437;-76
2022/06/05 02:59:51;;;;;;;16.25;10.57;;;20.80;99.90;;;;;;5054889;28;20519;-77
2022/06/05 03:05:01;;;;;;;20.40;10.60;;;20.80;99.90;;;;;;5054832;28;20039;-75
2022/06/05 03:07:27;;;;;;;19.13;10.52;;;20.70;99.90;;;;;;5054858;28;20025;-77
2022/06/05 03:09:53;;;;;;;14.00;10.38;;;20.70;99.90;;;;;;5054020;28;20025;-76
2022/06/05 03:12:18;;;;;;;18.50;11.02;;;20.70;99.90;;;;;;5055242;28;20359;-77
2022/06/05 03:14:44;;;;;;;19.75;10.55;;;20.70;99.90;;;;;;5054640;28;20029;-76
2022/06/05 03:17:10;;;;;;;22.77;11.38;;;20.60;99.90;;;;;;5054376;28;20053;-76
2022/06/05 03:19:36;;;;;;;16.88;10.60;;;20.70;99.90;;;;;;5054552;28;20028;-78
2022/06/05 03:22:02;;;;;;;19.50;9.60;;;20.60;99.90;;;;;;5054534;28;20409;-76
2022/06/05 03:24:28;;;;;;;22.98;10.60;;;20.70;99.90;;;;;;5054669;28;20025;-79
2022/06/05 03:26:53;;;;;;;14.55;9.32;;;20.70;99.90;;;;;;5054551;28;20050;-75
2022/06/05 03:29:20;;;;;;;22.13;9.57;;;20.70;99.90;;;;;;5053001;28;20036;-78
2022/06/05 03:31:46;;;;;;;14.93;9.27;;;20.70;99.90;;;;;;5053608;28;20409;-77
2022/06/05 03:34:12;;;;;;;19.58;10.07;;;20.80;99.90;;;;;;5054276;28;20495;-77
2022/06/05 03:36:38;;;;;;;18.50;9.52;;;20.80;99.90;;;;;;5053937;28;20414;-76
2022/06/05 03:39:04;;;;;;;15.98;9.32;;;20.80;99.90;;;;;;5054440;28;20031;-76
2022/06/05 03:41:30;;;;;;;18.85;9.93;;;20.80;99.90;;;;;;5054117;28;20021;-77
2022/06/05 03:43:57;;;;;;;20.08;10.70;;;20.80;99.90;;;;;;5053772;28;20024;-76
2022/06/05 03:46:22;;;;;;;16.98;8.82;;;20.80;99.90;;;;;;5054373;28;20036;-78
2022/06/05 03:48:48;;;;;;;14.68;9.18;;;20.80;99.90;;;;;;5054561;28;20021;-77
2022/06/05 03:51:20;;;;;;;23.98;9.23;;;20.70;99.90;;;;;;5053979;28;20027;-77
2022/06/05 03:53:46;;;;;;;;;;;20.70;99.90;;;;;;5054365;28;20531;-75
2022/06/05 03:56:14;;;;;;;14.35;9.10;;;20.70;99.90;;;;;;5054467;28;19936;-77
2022/06/05 03:58:41;;;;;;;14.43;9.65;;;20.60;99.90;;;;;;5052594;28;20021;-77
2022/06/05 04:01:11;;;;;;;17.50;9.88;;;20.60;99.90;;;;;;5054488;28;20021;-76
2022/06/05 04:03:37;;;;;;;16.13;9.43;;;20.60;99.90;;;;;;5053860;28;20056;-76
2022/06/05 04:06:07;;;;;;;16.83;10.05;;;20.70;99.90;;;;;;5054154;28;20025;-76
2022/06/05 04:08:36;;;;;;;15.27;8.73;;;20.70;99.90;;;;;;5054045;28;20067;-77
2022/06/05 04:11:11;;;;;;;21.05;10.15;;;20.80;99.90;;;;;;5052408;28;20045;-76
2022/06/05 04:13:38;;;;;;;14.98;9.35;;;20.90;99.90;;;;;;5054505;28;20027;-76
2022/06/05 04:16:15;;;;;;;20.13;9.57;;;21.00;99.90;;;;;;5053913;28;20104;-78
2022/06/05 04:18:41;;;;;;;28.27;8.95;;;21.10;99.90;;;;;;5053615;28;20033;-76
2022/06/05 04:21:09;;;;;;;16.35;9.27;;;21.20;99.90;;;;;;5053633;28;20459;-79
2022/06/05 04:23:35;;;;;;;16.25;9.63;;;21.20;99.90;;;;;;5053811;28;20079;-76
2022/06/05 04:26:01;;;;;;;13.93;9.45;;;21.30;99.90;;;;;;5053891;28;20040;-75
2022/06/05 04:28:27;;;;;;;20.58;10.23;;;21.50;99.90;;;;;;5053839;28;20017;-75
2022/06/05 04:30:53;;;;;;;20.75;10.13;;;21.50;99.90;;;;;;5053848;28;20024;-76
2022/06/05 04:33:19;;;;;;;18.50;10.20;;;21.70;99.90;;;;;;5053198;28;20462;-76
2022/06/05 04:35:44;;;;;;;17.92;10.13;;;21.80;99.90;;;;;;5053758;28;20398;-77
2022/06/05 04:38:11;;;;;;;16.92;9.70;;;21.90;99.90;;;;;;5053701;28;20077;-76
2022/06/05 04:40:37;;;;;;;13.52;9.80;;;22.00;99.90;;;;;;5052152;28;20025;-76
2022/06/05 04:43:02;;;;;;;17.10;9.35;;;22.10;99.90;;;;;;5052406;28;20028;-77
2022/06/05 04:45:28;;;;;;;16.38;9.23;;;22.20;99.90;;;;;;5052934;28;20025;-77
2022/06/05 04:47:54;;;;;;;17.63;9.45;;;22.20;99.90;;;;;;5052354;28;20029;-76
2022/06/05 04:50:20;;;;;;;11.75;9.02;;;22.40;99.90;;;;;;5053477;28;20093;-77
2022/06/05 04:52:45;;;;;;;12.80;8.57;;;22.50;99.90;;;;;;5052968;28;20051;-76
2022/06/05 04:55:11;;;;;;;14.65;8.57;;;22.60;99.90;;;;;;5052282;28;20344;-78
2022/06/05 04:57:37;;;;;;;17.58;8.93;;;22.70;99.90;;;;;;5053281;28;20071;-77
2022/06/05 05:00:05;;;;;;;17.13;9.23;;;22.80;99.90;;;;;;5053541;28;20470;-77
2022/06/05 05:02:31;;;;;;;14.40;9.25;;;22.90;99.90;;;;;;5053509;28;20329;-77
2022/06/05 05:04:57;;;;;;;20.13;9.63;;;23.00;99.90;;;;;;5053546;28;20029;-77
2022/06/05 05:07:23;;;;;;;13.57;8.95;;;23.00;99.90;;;;;;5053054;28;20025;-76
2022/06/05 05:09:49;;;;;;;15.00;9.23;;;23.10;99.90;;;;;;5053193;28;20096;-77
2022/06/05 05:12:15;;;;;;;10.95;8.48;;;23.20;99.90;;;;;;5052032;28;20128;-77
2022/06/05 05:14:41;;;;;;;21.25;9.85;;;23.30;99.90;;;;;;5052839;28;20028;-76
2022/06/05 05:17:08;;;;;;;17.38;9.35;;;;;;;;;;5053053;28;20020;-76
2022/06/05 05:19:34;;;;;;;14.82;8.98;;;;;;;;;;5052840;28;20133;-76
2022/06/05 05:22:00;;;;;;;14.68;8.70;;;;;;;;;;5053015;28;20059;-78
2022/06/05 05:24:27;;;;;;;19.33;8.18;;;;;;;;;;5053331;28;20031;-76
2022/06/05 05:26:53;;;;;;;16.17;8.75;;;;;;;;;;5053094;28;20654;-77
2022/06/05 05:29:19;;;;;;;15.88;8.20;;;;;;;;;;5052776;28;20017;-76
2022/06/05 05:31:45;;;;;;;14.15;8.40;;;;;;;;;;5053028;28;20048;-77
2022/06/05 05:34:13;;;;;;;14.82;8.30;;;;;;;;;;5055387;28;20028;-77
2022/06/05 05:36:40;;;;;;;10.45;8.07;;;;;;;;;;5055211;28;20130;-77
2022/06/05 05:42:07;;;;;;;12.85;8.20;;;;;;;;;;5056463;28;20031;-77
2022/06/05 05:44:43;;;;;;;17.20;8.10;;;;;;;;;;5055357;28;20021;-77
2022/06/05 05:47:11;;;;;;;17.30;9.45;;;;;;;;;;5056857;28;20048;-77
2022/06/05 05:49:37;;;;;;;15.93;8.93;;;;;;;;;;5056249;28;20070;-78
2022/06/05 05:52:04;;;;;;;15.32;9.27;;;;;;;;;;5055224;28;20491;-77
2022/06/05 05:54:30;;;;;;;18.60;9.80;;;;;;;;;;5055093;28;20063;-77
2022/06/05 05:56:56;;;;;;;11.93;8.73;;;;;;;;;;5055905;28;20462;-77
2022/06/05 05:59:22;;;;;;;15.50;9.15;;;;;;;;;;5055062;28;20028;-77
2022/06/05 06:01:48;;;;;;;17.13;9.35;;;;;;;;;;5056315;28;20013;-77
2022/06/05 06:04:15;;;;;;;21.40;11.20;;;;;;;;;;5055889;28;20028;-77
2022/06/05 06:06:42;;;;;;;24.73;12.38;;;;;;;;;;5055510;28;20049;-76
2022/06/05 06:09:09;;;;;;;37.28;13.85;;;;;;;;;;5055703;28;20016;-76
2022/06/05 06:11:35;;;;;;;28.90;13.80;;;;;;;;;;5054255;28;20478;-78
2022/06/05 06:14:01;;;;;;;27.25;13.90;;;;;;;;;;5055944;28;20021;-75
2022/06/05 06:16:27;;;;;;;24.33;13.75;;;;;;;;;;5055494;28;20036;-76
2022/06/05 06:18:54;;;;;;;34.17;13.43;;;;;;;;;;5054549;28;20045;-75
2022/06/05 06:21:20;;;;;;;22.13;12.30;;;;;;;;;;5055448;28;20017;-74
2022/06/05 06:23:47;;;;;;;21.52;12.85;;;;;;;;;;5055746;28;20052;-75
2022/06/05 06:26:14;;;;;;;22.08;16.00;;;;;;;;;;5055165;28;20075;-76
2022/06/05 06:28:40;;;;;;;20.77;11.50;;;;;;;;;;5052490;28;20031;-74
2022/06/05 06:31:10;;;;;;;16.60;9.90;;;;;;;;;;5054694;28;20032;-76
2022/06/05 06:33:37;;;;;;;11.82;9.45;;;;;;;;;;5055009;28;20147;-75
2022/06/05 06:36:04;;;;;;;19.10;12.98;;;;;;;;;;5054905;28;20363;-76
2022/06/05 06:38:30;;;;;;;28.45;15.65;;;;;;;;;;5053778;28;20054;-75
2022/06/05 06:41:00;;;;;;;23.00;13.63;;;;;;;;;;5053964;28;20024;-74
2022/06/05 06:43:26;;;;;;;18.92;13.10;;;;;;;;;;5051728;28;20017;-74
2022/06/05 06:45:52;;;;;;;18.80;12.30;;;;;;;;;;5054039;28;20025;-75
2022/06/05 06:48:18;;;;;;;22.23;13.25;;;;;;;;;;5055237;28;20021;-73
2022/06/05 06:50:45;;;;;;;19.15;11.30;;;;;;;;;;5054654;28;20243;-75
2022/06/05 06:53:11;;;;;;;14.52;9.65;;;;;;;;;;5054439;28;20043;-74
2022/06/05 06:55:38;;;;;;;16.25;10.98;;;;;;;;;;5055132;28;20013;-75
2022/06/05 06:58:04;;;;;;;16.63;11.65;;;;;;;;;;5055016;28;20009;-74
2022/06/05 07:00:30;;;;;;;18.02;11.90;;;;;;;;;;5054306;28;20396;-74
2022/06/05 07:02:56;;;;;;;19.67;12.13;;;;;;;;;;5054836;28;20028;-74
2022/06/05 07:05:22;;;;;;;19.33;10.68;;;;;;;;;;5054701;28;20071;-74
2022/06/05 07:07:49;;;;;;;20.15;12.63;;;;;;;;;;5054641;28;20032;-74
2022/06/05 07:10:15;;;;;;;17.25;10.70;;;;;;;;;;5054117;28;20456;-75
2022/06/05 07:12:41;;;;;;;16.27;8.93;;;;;;;;;;5053583;28;20024;-75
2022/06/05 07:15:08;;;;;;;11.90;8.30;;;;;;;;;;5053842;28;20020;-77
2022/06/05 07:17:34;;;;;;;9.75;7.13;;;;;;;;;;5053779;28;20049;-74
2022/06/05 07:20:00;;;;;;;16.75;7.88;;;;;;;;;;5052636;28;20021;-75
2022/06/05 07:22:27;;;;;;;11.23;7.90;;;;;;;;;;5052018;28;20048;-74
2022/06/05 07:24:53;;;;;;;10.88;8.20;;;;;;;;;;5052171;28;20021;-74
2022/06/05 07:27:19;;;;;;;11.05;7.47;;;;;;;;;;5052444;28;20017;-75
2022/06/05 07:29:46;;;;;;;10.38;7.63;;;;;;;;;;5053360;28;20159;-77
2022/06/05 07:32:13;;;;;;;10.43;6.82;;;;;;;;;;5053738;28;20017;-75
2022/06/05 07:34:40;;;;;;;7.93;6.80;;;;;;;;;;5054148;28;20467;-75
2022/06/05 07:37:06;;;;;;;8.18;6.18;;;;;;;;;;5053857;28;20048;-75
2022/06/05 07:39:32;;;;;;;7.50;6.47;;;;;;;;;;5053172;28;20028;-75
2022/06/05 07:41:58;;;;;;;8.75;7.63;;;;;;;;;;5052825;28;20451;-75
2022/06/05 07:44:25;;;;;;;8.98;6.35;;;;;;;;;;5052599;28;20033;-75
2022/06/05 07:46:52;;;;;;;13.43;7.05;;;;;;;;;;5052790;28;20013;-76
2022/06/05 07:49:18;;;;;;;13.05;6.88;;;;;;;;;;5052897;28;20013;-75
2022/06/05 07:54:30;;;;;;;9.00;5.53;;;;;;;;;;5052566;28;20433;-75
2022/06/05 07:57:07;;;;;;;7.15;5.25;;;;;;;;;;5052269;28;20062;-74
2022/06/05 07:59:35;;;;;;;5.88;5.22;;;;;;;;;;5050610;28;20013;-77
2022/06/05 08:02:04;;;;;;;9.07;5.05;;;;;;;;;;5052219;28;20075;-77
2022/06/05 08:04:30;;;;;;;7.22;4.82;;;;;;;;;;5048386;28;20104;-75
2022/06/05 08:06:57;;;;;;;7.47;4.85;;;;;;;;;;5052657;28;20020;-74
2022/06/05 08:09:23;;;;;;;7.53;4.88;;;;;;;;;;5052387;28;20052;-75
2022/06/05 08:11:49;;;;;;;9.43;4.25;;;;;;;;;;5053924;28;20039;-75
2022/06/05 08:14:15;;;;;;;6.63;4.25;;;;;;;;;;5052675;28;20021;-76
2022/06/05 08:16:43;;;;;;;7.22;4.47;;;;;;;;;;5050940;28;20017;-74
2022/06/05 08:19:13;;;;;;;4.32;3.58;;;;;;;;;;5052017;28;20040;-74
2022/06/05 08:21:40;;;;;;;7.32;5.00;;;;;;;;;;5049069;28;20013;-76
2022/06/05 08:24:06;;;;;;;4.82;4.32;;;;;;;;;;5052331;28;20025;-75
2022/06/05 08:26:33;;;;;;;6.32;4.75;;;;;;;;;;5051136;28;20074;-74
2022/06/05 08:28:59;;;;;;;8.05;5.43;;;;;;;;;;5053526;28;20013;-75
2022/06/05 08:31:27;;;;;;;9.68;6.68;;;;;;;;;;5052798;28;20064;-76
2022/06/05 08:33:53;;;;;;;9.20;6.13;;;;;;;;;;5053548;28;20024;-75
2022/06/05 08:36:19;;;;;;;8.48;5.75;;;;;;;;;;5053087;28;20021;-76
2022/06/05 08:41:50;;;;;;;6.65;6.05;;;;;;;;;;5053320;28;20067;-74
2022/06/05 08:44:22;;;;;;;8.65;6.10;;;;;;;;;;5052560;28;20079;-75
2022/06/05 08:46:51;;;;;;;10.40;6.40;;;;;;;;;;5052925;28;20021;-75
2022/06/05 08:49:22;;;;;;;8.50;6.70;;;;;;;;;;5052536;28;20017;-75
2022/06/05 08:52:03;;;;;;;7.65;5.72;;;;;;;;;;5052622;28;20021;-74
2022/06/05 08:54:50;;;;;;;15.38;6.57;;;;;;;;;;5053426;28;20021;-74
2022/06/05 08:57:19;;;;;;;13.13;6.07;;;;;;;;;;5052350;28;20032;-76
2022/06/05 08:59:47;;;;;;;7.35;6.55;;;;;;;;;;5050760;28;20020;-76
2022/06/05 09:02:13;;;;;;;9.38;5.70;;;;;;;;;;5052365;28;20021;-76
2022/06/05 09:04:42;;;;;;;6.25;5.15;;;;;;;;;;5051760;28;20735;-75
2022/06/05 09:07:11;;;;;;;7.80;5.97;;;;;;;;;;5052199;28;20096;-74
2022/06/05 09:09:47;;;;;;;9.30;5.70;;;;;;;;;;5053334;28;20013;-74
2022/06/05 09:12:22;;;;;;;6.00;5.50;;;;;;;;;;5055826;28;20017;-76
2022/06/05 09:15:01;;;;;;;6.55;5.88;;;;;;;;;;5055345;28;20345;-75
2022/06/05 09:17:28;;;;;;;8.07;5.78;;;;;;;;;;5054540;28;20005;-77
2022/06/05 09:19:57;;;;;;;5.93;5.43;;;;;;;;;;5050877;28;20044;-75
2022/06/05 09:22:42;;;;;;;6.55;4.85;;;;;;;;;;5049585;28;20025;-75
2022/06/05 09:25:26;;;;;;;7.57;5.10;;;;;;;;;;5054039;28;20055;-75
2022/06/05 09:28:01;;;;;;;9.32;5.10;;;;;;;;;;5055183;28;20475;-74
2022/06/05 09:30:42;;;;;;;7.30;5.20;;;;;;;;;;5055409;28;20052;-75
2022/06/05 09:33:19;;;;;;;6.65;5.00;;;;;;;;;;5053291;28;20347;-77
2022/06/05 09:35:48;;;;;;;7.93;5.07;;;;;;;;;;5054403;28;20035;-76
2022/06/05 09:38:31;;;;;;;6.15;5.50;;;;;;;;;;5053011;28;20025;-74
2022/06/05 09:41:00;;;;;;;6.57;5.28;;;;;;;;;;5056315;28;20024;-76
2022/06/05 09:43:29;;;;;;;7.88;5.32;;;;;;;;;;5056132;28;20021;-73
2022/06/05 09:45:55;;;;;;;8.55;5.88;;;;;;;;;;5049870;28;20040;-76
2022/06/05 09:48:28;;;;;;;6.03;4.85;;;;;;;;;;5036119;28;20018;-74
2022/06/05 09:50:54;;;;;;;4.80;4.40;;;;;;;;;;5046450;28;20295;-75
2022/06/05 09:53:43;;;;;;;5.88;5.28;;;;;;;;;;5054784;28;20023;-77
2022/06/05 09:56:18;;;;;;;6.75;4.85;;;;;;;;;;5044235;28;20037;-75
2022/06/05 09:58:44;;;;;;;4.72;4.32;;;;;;;;;;5042093;28;20020;-74
2022/06/05 10:01:21;;;;;;;5.90;5.28;;;;;;;;;;5055867;28;20354;-75
2022/06/05 10:03:48;;;;;;;8.23;5.32;;;;;;;;;;5053768;28;20067;-74
2022/06/05 10:06:17;;;;;;;6.18;5.10;;;;;;;;;;5043773;28;20345;-74
2022/06/05 10:08:51;;;;;;;7.80;5.60;;;;;;;;;;5035645;28;20020;-74
2022/06/05 10:11:20;;;;;;;5.85;5.28;;;;;;;;;;5036043;28;20041;-75
2022/06/05 10:13:52;;;;;;;5.90;5.13;;;;;;;;;;5053603;28;20057;-75
2022/06/05 10:16:32;;;;;;;5.75;5.25;;;;;;;;;;5053454;28;20100;-75
2022/06/05 10:19:17;;;;;;;7.18;4.57;;;;;;;;;;5054194;28;20041;-74
2022/06/05 10:21:49;;;;;;;5.53;5.00;;;;;;;;;;5054290;28;20676;-75
2022/06/05 10:24:28;;;;;;;7.40;5.43;;;;;;;;;;5054968;28;20569;-74
2022/06/05 10:26:56;;;;;;;7.20;4.70;;;;;;;;;;5055316;28;20025;-75
2022/06/05 10:29:26;;;;;;;6.32;5.40;;;;;;;;;;5054480;28;20013;-76
2022/06/05 10:32:01;;;;;;;7.32;5.18;;;;;;;;;;5055177;28;20021;-74
2022/06/05 10:34:30;;;;;;;9.02;5.50;;;;;;;;;;5053581;28;20020;-77
2022/06/05 10:36:59;;;;;;;6.78;5.20;;;;;;;;;;5053438;28;20431;-76
2022/06/05 10:39:34;;;;;;;9.35;5.72;;;;;;;;;;5053749;28;20413;-75
2022/06/05 10:42:21;;;;;;;10.27;5.70;;;;;;;;;;5052497;28;20021;-76
2022/06/05 10:44:58;;;;;;;7.93;5.60;;;;;;;;;;5054381;28;20013;-75
2022/06/05 10:47:32;;;;;;;8.45;5.22;;;;;;;;;;5055228;28;20025;-77
2022/06/05 10:50:04;;;;;;;6.95;5.68;;;;;;;;;;5053877;28;20017;-78
2022/06/05 10:52:40;;;;;;;9.43;5.40;;;;;;;;;;5055650;28;20021;-76
2022/06/05 10:55:06;;;;;;;7.13;4.97;;;;;;;;;;5055030;28;20031;-74
2022/06/05 10:57:39;;;;;;;6.40;5.80;;;;;;;;;;5053711;28;20371;-76
2022/06/05 11:00:23;;;;;;;7.93;5.50;;;;;;;;;;5055219;28;20075;-75
2022/06/05 11:03:25;;;;;;;5.47;5.00;;;;;;;;;;5055233;28;20025;-76
2022/06/05 11:06:09;;;;;;;6.68;5.50;;;;;;;;;;5032705;28;20030;-75
2022/06/05 11:08:53;;;;;;;7.13;5.60;;;;;;;;;;5032965;28;20598;-74
2022/06/05 11:14:13;;;;;;;6.70;5.43;;;;;;;;;;5032785;28;20033;-75
2022/06/05 11:16:51;;;;;;;6.70;5.38;;;;;;;;;;5032510;28;20029;-76
2022/06/05 11:19:27;;;;;;;7.00;5.38;;;;;;;;;;5032071;28;20068;-76
2022/06/05 11:21:54;;;;;;;8.35;5.15;;;;;;;;;;5032715;28;20391;-76
2022/06/05 11:24:26;;;;;;;6.40;5.55;;;;;;;;;;5032052;28;20022;-76
2022/06/05 11:26:53;;;;;;;;;;;;;;;;;;5016316;28;20030;-76
2022/06/05 11:29:38;;;;;;;7.53;5.63;;;;;;;;;;5032321;28;19999;-77
2022/06/05 11:32:11;;;;;;;8.02;5.80;;;;;;;;;;5031244;28;20025;-75
2022/06/05 11:34:37;;;;;;;7.25;5.85;;;;;;;;;;5032378;28;20489;-76
2022/06/05 11:37:22;;;;;;;6.38;5.75;;;;;;;;;;5032329;28;20100;-78
2022/06/05 11:39:57;;;;;;;8.10;6.00;;;;;;;;;;5042673;28;20043;-76
2022/06/05 11:42:26;;;;;;;7.30;6.28;;;;;;;;;;5054421;28;20017;-76
2022/06/05 11:45:13;;;;;;;11.43;6.30;;;;;;;;;;5054498;28;20107;-76
2022/06/05 11:47:39;;;;;;;6.68;6.00;;;;;;;;;;5053614;28;20447;-76
2022/06/05 11:50:05;;;;;;;7.05;6.30;;;;;;;;;;5054318;28;20059;-75
2022/06/05 11:52:46;;;;;;;9.10;6.07;;;;;;;;;;5053801;28;20367;-76
2022/06/05 11:55:13;;;;;;;;;;;;;;;;;;5053096;28;20021;-76
2022/06/05 11:57:39;;;;;;;6.88;6.18;;;;;;;;;;5053616;28;20246;-76
2022/06/05 12:00:14;;;;;;;7.88;6.47;;;;;;;;;;5052692;28;20013;-78
2022/06/05 12:02:44;;;;;;;6.38;5.78;;;;;;;;;;5053896;28;20102;-77
2022/06/05 12:05:19;;;;;;;9.27;5.95;;;;;;;;;;5053424;28;20053;-77
2022/06/05 12:07:47;;;;;;;8.45;6.40;;;;;;;;;;5052856;28;20367;-76
2022/06/05 12:10:18;;;;;;;7.47;6.35;;;;;;;;;;5053141;28;20092;-74
2022/06/05 12:12:48;;;;;;;9.82;5.80;;;;;;;;;;5052236;28;20017;-76
2022/06/05 12:15:26;;;;;;;6.25;5.65;;;;;;;;;;5052825;28;20024;-76
2022/06/05 12:18:01;;;;;;;9.02;6.03;;;;;;;;;;5053237;28;20483;-76
2022/06/05 12:20:28;;;;;;;9.98;5.82;;;;;;;;;;5052737;28;20031;-75
2022/06/05 12:23:01;;;;;;;8.48;5.97;;;;;;;;;;5053267;28;20029;-76
2022/06/05 12:25:27;;;;;;;8.25;6.50;;;;;;;;;;5052880;28;20451;-76
2022/06/05 12:27:53;;;;;;;8.15;6.13;;;;;;;;;;5053205;28;20083;-76
2022/06/05 12:30:24;;;;;;;6.70;5.97;;;;;;;;;;5052935;28;20481;-76
2022/06/05 12:32:53;;;;;;;8.55;6.07;;;;;;;;;;5053029;28;20021;-76
2022/06/05 12:35:24;;;;;;;10.70;6.55;;;;;;;;;;5052283;28;20348;-76
2022/06/05 12:38:08;;;;;;;6.57;5.95;;;;;;;;;;5053059;28;20028;-77
2022/06/05 12:40:41;;;;;;;11.05;6.20;;;;;;;;;;5052925;28;20362;-77
2022/06/05 12:43:11;;;;;;;9.25;5.88;;;;;;;;;;5055206;28;20027;-77
2022/06/05 12:45:39;;;;;;;9.15;6.20;;;;;;;;;;5057030;28;20031;-76
2022/06/05 12:48:20;;;;;;;7.03;6.32;;;;;;;;;;5056898;28;20013;-77
2022/06/05 12:50:59;;;;;;;8.75;6.20;;;;;;;;;;5056879;28;20368;-75
2022/06/05 12:53:32;;;;;;;8.00;6.68;;;;;;;;;;5057124;28;20474;-76
2022/06/05 12:56:12;;;;;;;8.57;6.32;;;;;;;;;;5056573;28;20478;-75
2022/06/05 12:58:39;;;;;;;7.72;6.93;;;;;;;;;;5057006;28;20516;-77
2022/06/05 13:01:09;;;;;;;8.75;6.25;;;;;;;;;;5056502;28;20419;-74
2022/06/05 13:03:54;;;;;;;6.47;5.80;;;;;;;;;;5056699;28;20067;-75
2022/06/05 13:06:38;;;;;;;8.07;6.10;;;;;;;;;;5056457;28;20247;-78
2022/06/05 13:09:28;;;;;;;9.20;5.32;;;;;;;;;;5055053;28;20017;-74
2022/06/05 13:11:56;;;;;;;8.55;5.68;;;;;;;;;;5054031;28;20025;-73
2022/06/05 13:14:28;;;;;;;7.47;5.40;;;;;;;;;;5056470;28;20147;-74
2022/06/05 13:16:54;;;;;;;11.52;5.38;;;;;;;;;;5056290;28;20025;-74
2022/06/05 13:19:27;;;;;;;7.93;5.30;;;;;;;;;;5056506;28;20344;-75
2022/06/05 13:22:02;;;;;;;9.23;5.47;;;;;;;;;;5056646;28;20104;-74
2022/06/05 13:24:35;;;;;;;6.18;5.38;;;;;;;;;;5055888;28;20016;-74
2022/06/05 13:27:19;;;;;;;14.95;6.10;;;;;;;;;;5056212;28;20519;-75
2022/06/05 13:29:58;;;;;;;7.05;5.43;;;;;;;;;;5056123;28;20013;-77
2022/06/05 13:32:47;;;;;;;7.60;5.80;;;;;;;;;;5056055;28;20079;-76
2022/06/05 13:35:13;;;;;;;9.43;5.82;;;;;;;;;;5055827;28;20017;-77
2022/06/05 13:37:42;;;;;;;5.70;5.18;;;;;;;;;;5055949;28;20096;-75
2022/06/05 13:40:24;;;;;;;10.20;5.57;;;;;;;;;;5055952;28;20013;-77
2022/06/05 13:42:51;;;;;;;7.00;5.60;;;;;;;;;;5056274;28;20021;-75
2022/06/05 13:45:30;;;;;;;6.38;5.75;;;;;;;;;;5055470;28;20561;-76
2022/06/05 13:48:04;;;;;;;10.13;6.03;;;;;;;;;;5056009;28;20028;-75
2022/06/05 13:50:30;;;;;;;7.85;5.38;;;;;;;;;;5055960;28;20017;-73
2022/06/05 13:53:16;;;;;;;9.18;5.63;;;;;;;;;;5055358;28;20025;-73
2022/06/05 13:55:42;;;;;;;8.50;5.65;;;;;;;;;;5055347;28;20112;-73
2022/06/05 13:58:20;;;;;;;9.65;5.40;;;;;;;;;;5055551;28;20024;-74
2022/06/05 14:00:55;;;;;;;9.93;5.38;;;;;;;;;;5055574;28;20027;-73
2022/06/05 14:03:40;;;;;;;9.43;5.40;;;;;;;;;;5054232;28;20398;-75
2022/06/05 14:06:14;;;;;;;7.72;5.60;;;;;;;;;;5055043;28;20040;-74
2022/06/05 14:08:46;;;;;;;8.65;5.38;;;;;;;;;;5055714;28;20053;-73
2022/06/05 14:11:12;;;;;;;7.10;5.25;;;;;;;;;;5053781;28;20017;-74
2022/06/05 14:13:40;;;;;;;8.93;5.95;;;;;;;;;;5055205;28;20020;-75
2022/06/05 14:16:07;;;;;;;7.53;5.63;;;;;;;;;;5055351;28;20017;-76
2022/06/05 14:18:40;;;;;;;9.32;5.30;;;;;;;;;;5055118;28;20090;-75
2022/06/05 14:21:27;;;;;;;9.95;5.13;;;;;;;;;;5054951;28;20025;-73
2022/06/05 14:23:54;;;;;;;8.02;5.85;;;;;;;;;;5053892;28;20479;-74
2022/06/05 14:26:43;;;;;;;8.65;5.32;;;;;;;;;;5055037;28;20025;-72
2022/06/05 14:29:36;;;;;;;6.55;5.00;;;;;;;;;;5051554;28;20029;-74
2022/06/05 14:32:10;;;;;;;16.08;6.25;;;;;;;;;;5051914;28;20025;-74